Time;durP1;ratioP1;P1;durP2;ratioP2;P2;SDS_P1;SDS_P2;PMS_P1;PMS_P2;Temp;Humidity;BMP_temperature;BMP_pressure;BME280_temperature;BME280_humidity;BME280_pressure;Samples;Min_cycle;Max_cycle;Signal;HPM_P1;HPM_P2
2022/12/06 00:01:55;;;;;;;14.40;5.53;;;;;;;5.64;100.00;102232.25;5048047;28;20079;-63
2022/12/06 00:04:20;;;;;;;21.48;6.00;;;;;;;5.58;100.00;102235.69;5048782;28;20477;-64
2022/12/06 00:06:50;;;;;;;9.45;4.60;;;;;;;5.49;100.00;102239.09;5047933;28;20192;-64
2022/12/06 00:09:24;;;;;;;13.70;5.32;;;;;;;5.40;100.00;102236.38;5048386;28;20024;-62
2022/12/06 00:11:50;;;;;;;18.60;5.95;;;;;;;5.35;100.00;102235.44;5048313;28;20415;-60
2022/12/06 00:14:16;;;;;;;11.80;5.13;;;;;;;5.30;100.00;102236.28;5048477;28;20029;-64
2022/12/06 00:16:42;;;;;;;15.13;6.00;;;;;;;5.26;100.00;102244.97;5048495;28;20029;-62
2022/12/06 00:19:12;;;;;;;10.68;5.07;;;;;;;5.21;100.00;102236.16;5048386;28;20091;-63
2022/12/06 00:21:37;;;;;;;17.90;5.43;;;;;;;5.16;100.00;102232.66;5048330;28;20025;-62
2022/12/06 00:24:08;;;;;;;15.88;5.20;;;;;;;5.17;100.00;102235.28;5047727;28;20082;-61
2022/12/06 00:26:35;;;;;;;14.40;5.53;;;;;;;5.18;100.00;102229.19;5048353;28;20013;-62
2022/12/06 00:29:00;;;;;;;13.40;5.80;;;;;;;5.16;100.00;102230.03;5048941;28;20023;-62
2022/12/06 00:31:29;;;;;;;13.52;6.28;;;;;;;5.23;100.00;102231.84;5048959;28;20111;-64
2022/12/06 00:33:54;;;;;;;12.87;5.90;;;;;;;5.29;100.00;102224.09;5047100;28;20035;-62
2022/12/06 00:36:25;;;;;;;13.98;6.13;;;;;;;5.31;100.00;102225.00;5049979;28;20025;-62
2022/12/06 00:38:50;;;;;;;16.55;6.07;;;;;;;5.30;100.00;102224.97;5051506;28;20491;-63
2022/12/06 00:41:22;;;;;;;13.63;5.90;;;;;;;5.44;100.00;102227.72;5051934;28;20036;-60
2022/12/06 00:43:48;;;;;;;17.35;6.00;;;;;;;5.47;100.00;102227.75;5049697;28;20029;-63
2022/12/06 00:46:16;;;;;;;14.43;5.57;;;;;;;5.44;100.00;102232.94;5051930;28;20029;-64
2022/12/06 00:48:42;;;;;;;19.20;5.90;;;;;;;5.41;100.00;102225.94;5051342;28;20437;-59
2022/12/06 00:51:07;;;;;;;12.30;5.00;;;;;;;5.38;100.00;102223.28;5051466;28;20025;-64
2022/12/06 00:53:33;;;;;;;14.20;5.32;;;;;;;5.35;100.00;102225.88;5050405;28;20053;-57
2022/12/06 00:55:58;;;;;;;19.38;5.40;;;;;;;5.31;100.00;102221.50;5051087;28;20022;-64
2022/12/06 00:58:23;;;;;;;17.83;5.15;;;;;;;5.24;100.00;102224.91;5051628;28;20402;-63
2022/12/06 01:00:49;;;;;;;15.40;4.80;;;;;;;5.22;100.00;102222.28;5051227;28;20040;-64
2022/12/06 01:03:15;;;;;;;17.83;5.03;;;;;;;5.17;100.00;102219.59;5050290;28;20064;-64
2022/12/06 01:05:48;;;;;;;14.48;4.55;;;;;;;5.19;100.00;102224.84;5051131;28;20055;-62
2022/12/06 01:08:14;;;;;;;15.23;5.45;;;;;;;5.25;100.00;102226.66;5042547;28;20434;-62
2022/12/06 01:10:40;;;;;;;12.30;5.25;;;;;;;5.23;100.00;102224.00;5050972;28;20395;-63
2022/12/06 01:13:06;;;;;;;11.73;5.10;;;;;;;5.27;100.00;102224.94;5050020;28;20036;-62
2022/12/06 01:15:31;;;;;;;15.80;5.45;;;;;;;5.34;100.00;102221.53;5050569;28;20674;-63
2022/12/06 01:17:57;;;;;;;12.90;4.20;;;;;;;5.37;100.00;102221.56;5049485;28;20033;-65
2022/12/06 01:20:23;;;;;;;10.40;3.90;;;;;;;5.44;100.00;102219.88;5051015;28;20036;-60
2022/12/06 01:22:48;;;;;;;12.60;5.30;;;;;;;5.46;100.00;102215.53;5050076;28;20025;-62
2022/12/06 01:25:13;;;;;;;12.13;5.90;;;;;;;5.45;100.00;102219.03;5051033;28;20024;-63
2022/12/06 01:27:39;;;;;;;11.98;4.30;;;;;;;5.50;100.00;102212.09;5051530;28;20163;-63
2022/12/06 01:30:05;;;;;;;11.75;4.30;;;;;;;5.54;100.00;102211.25;5051018;28;20039;-64
2022/12/06 01:32:30;;;;;;;9.23;4.53;;;;;;;5.59;100.00;102207.78;5049796;28;20029;-62
2022/12/06 01:34:55;;;;;;;12.57;4.22;;;;;;;5.65;100.00;102215.69;5050783;28;20495;-63
2022/12/06 01:37:21;;;;;;;12.80;4.22;;;;;;;5.67;100.00;102217.47;5044616;28;20025;-63
2022/12/06 01:39:46;;;;;;;10.25;3.90;;;;;;;5.68;100.00;102218.34;5030934;28;20071;-62
2022/12/06 01:42:12;;;;;;;9.27;3.58;;;;;;;5.70;100.00;102214.00;5030468;28;20056;-64
2022/12/06 01:44:49;;;;;;;9.68;4.00;;;;;;;5.80;100.00;102225.41;5030754;28;20037;-63
2022/12/06 01:47:22;;;;;;;7.97;3.58;;;;;;;5.83;100.00;102222.81;5031189;28;20034;-65
2022/12/06 01:50:00;;;;;;;7.28;3.42;;;;;;;5.87;100.00;102221.13;5029170;28;20377;-62
2022/12/06 01:52:29;;;;;;;18.15;3.85;;;;;;;5.89;100.00;102219.38;5028722;28;20033;-64
2022/12/06 01:54:55;;;;;;;12.77;4.07;;;;;;;5.87;100.00;102218.50;5028702;28;20042;-63
2022/12/06 01:57:20;;;;;;;9.45;3.67;;;;;;;5.87;100.00;102218.50;5029400;28;20026;-62
2022/12/06 01:59:46;;;;;;;10.77;4.90;;;;;;;5.91;100.00;102217.66;5029536;28;20104;-64
2022/12/06 02:02:12;;;;;;;11.18;3.42;;;;;;;5.95;100.00;102214.19;5029363;28;20425;-63
2022/12/06 02:04:38;;;;;;;8.45;3.50;;;;;;;5.82;100.00;102218.47;5030909;28;20029;-62
2022/12/06 02:07:04;;;;;;;12.32;3.47;;;;;;;5.82;100.00;102208.88;5038060;28;20029;-61
2022/12/06 02:09:30;;;;;;;8.48;3.28;;;;;;;5.80;100.00;102208.00;5048824;28;20040;-64
2022/12/06 02:11:55;;;;;;;8.52;3.70;;;;;;;5.94;100.00;102213.31;5048682;28;20020;-63
2022/12/06 02:14:24;;;;;;;11.82;3.30;;;;;;;6.01;100.00;102210.75;5048602;28;20112;-62
2022/12/06 02:17:02;;;;;;;7.15;3.38;;;;;;;6.02;100.00;102212.53;5048239;28;20060;-58
2022/12/06 02:19:49;;;;;;;11.32;3.33;;;;;;;6.04;100.00;102209.06;5048467;28;20020;-63
2022/12/06 02:22:20;;;;;;;7.68;3.03;;;;;;;6.06;100.00;102206.47;5048765;28;20033;-61
2022/12/06 02:25:06;;;;;;;9.07;4.03;;;;;;;5.95;100.00;102214.19;5048298;28;20031;-63
2022/12/06 02:28:14;;;;;;;10.05;3.00;;;;;;;6.02;100.00;102208.16;5047882;28;20549;-63
2022/12/06 02:31:04;;;;;;;11.05;2.67;;;;;;;6.00;100.00;102204.66;5036170;28;20029;-60
2022/12/06 02:33:35;;;;;;;10.85;3.30;;;;;;;6.06;100.00;102209.94;5027141;28;20520;-64
2022/12/06 02:36:07;;;;;;;8.10;3.13;;;;;;;5.99;100.00;102210.75;5028637;28;20052;-64
2022/12/06 02:38:47;;;;;;;8.25;3.60;;;;;;;6.04;100.00;102206.47;5030407;28;20025;-64
2022/12/06 02:41:21;;;;;;;14.50;3.67;;;;;;;6.01;100.00;102208.13;5027626;28;20056;-63
2022/12/06 02:43:51;;;;;;;8.90;2.90;;;;;;;6.03;100.00;102201.19;5031018;28;20033;-63
2022/12/06 02:46:19;;;;;;;7.47;2.33;;;;;;;6.06;100.00;102201.25;5027879;28;20037;-62
2022/12/06 02:48:45;;;;;;;10.32;2.90;;;;;;;5.98;100.00;102203.75;5031025;28;20025;-64
2022/12/06 02:51:16;;;;;;;11.38;2.78;;;;;;;5.99;100.00;102205.50;5048611;28;20036;-63
2022/12/06 02:53:44;;;;;;;8.27;2.85;;;;;;;6.02;100.00;102204.69;5047174;28;20450;-62
2022/12/06 02:56:12;;;;;;;14.45;2.88;;;;;;;6.03;100.00;102207.31;5049428;28;20098;-63
2022/12/06 02:58:37;;;;;;;7.80;3.20;;;;;;;5.98;100.00;102201.16;5048126;28;20371;-63
2022/12/06 03:01:08;;;;;;;11.20;3.42;;;;;;;5.91;100.00;102188.88;5048001;28;20032;-62
2022/12/06 03:04:11;;;;;;;4.38;2.47;;;;;;;5.92;100.00;102191.50;5047987;28;20045;-62
2022/12/06 03:06:44;;;;;;;8.82;3.13;;;;;;;5.94;100.00;102192.38;5048770;28;20036;-63
2022/12/06 03:09:24;;;;;;;8.43;3.17;;;;;;;5.96;100.00;102199.38;5047892;28;20024;-60
2022/12/06 03:12:07;;;;;;;14.88;3.70;;;;;;;5.88;100.00;102204.56;5048958;28;20510;-60
2022/12/06 03:14:46;;;;;;;9.85;3.50;;;;;;;5.89;100.00;102201.94;5047753;28;20129;-62
2022/12/06 03:17:15;;;;;;;;;;;;;;;5.90;100.00;102200.22;5048039;28;20037;-63
2022/12/06 03:19:41;;;;;;;5.65;3.00;;;;;;;5.89;100.00;102201.94;5047342;28;20015;-63
2022/12/06 03:22:22;;;;;;;10.80;3.03;;;;;;;5.82;100.00;102201.00;5048362;28;20025;-62
2022/12/06 03:24:48;;;;;;;7.32;2.97;;;;;;;5.90;100.00;102197.63;5046741;28;20071;-62
2022/12/06 03:27:16;;;;;;;10.32;3.63;;;;;;;5.89;100.00;102201.06;5047470;28;20025;-64
2022/12/06 03:29:49;;;;;;;12.60;3.22;;;;;;;5.88;100.00;102204.56;5047022;28;20043;-64
2022/12/06 03:32:16;;;;;;;10.55;3.10;;;;;;;5.79;100.00;102192.28;5047187;28;20060;-63
2022/12/06 03:34:46;;;;;;;9.93;3.17;;;;;;;5.75;100.00;102196.59;5047227;28;20033;-63
2022/12/06 03:37:15;;;;;;;15.27;3.40;;;;;;;5.73;100.00;102198.34;5046771;28;20111;-58
2022/12/06 03:39:46;;;;;;;9.75;2.70;;;;;;;5.72;100.00;102201.81;5047133;28;20020;-62
2022/12/06 03:42:11;;;;;;;13.90;3.40;;;;;;;5.76;100.00;102193.16;5047860;28;20029;-63
2022/12/06 03:44:37;;;;;;;14.20;3.63;;;;;;;5.81;100.00;102191.44;5048055;28;20020;-62
2022/12/06 03:47:38;;;;;;;7.70;2.83;;;;;;;5.81;100.00;102196.66;5048749;28;20036;-63
2022/12/06 03:50:08;;;;;;;10.27;2.85;;;;;;;5.84;100.00;102200.16;5046589;28;20083;-63
2022/12/06 03:52:34;;;;;;;8.10;3.40;;;;;;;5.82;100.00;102197.53;5046168;28;20029;-64
2022/12/06 03:54:59;;;;;;;9.63;2.88;;;;;;;5.79;100.00;102193.16;5047889;28;20043;-61
2022/12/06 03:57:24;;;;;;;9.27;2.80;;;;;;;5.75;100.00;102194.00;5048279;28;20025;-63
2022/12/06 03:59:50;;;;;;;6.93;2.80;;;;;;;5.68;100.00;102197.41;5046951;28;20117;-63
2022/12/06 04:02:15;;;;;;;9.73;3.15;;;;;;;5.57;100.00;102195.59;5047191;28;20021;-60
2022/12/06 04:04:40;;;;;;;6.60;2.63;;;;;;;5.50;100.00;102196.41;5048193;28;20017;-63
2022/12/06 04:07:06;;;;;;;10.82;2.80;;;;;;;5.35;100.00;102197.13;5048138;28;20028;-63
2022/12/06 04:14:59;;;;;;;10.57;2.95;;;;;;;4.91;100.00;102195.78;5052163;28;20113;-61
2022/12/06 04:20:08;;;;;;;9.90;3.20;;;;;;;4.70;100.00;102206.84;5053101;28;20403;-62
2022/12/06 04:25:17;;;;;;;7.10;2.50;;;;;;;4.55;100.00;102203.19;5052934;28;20126;-64
2022/12/06 04:38:43;;;;;;;8.65;3.25;;;;;;;4.80;100.00;102193.94;5051269;28;20521;-60
2022/12/06 04:41:10;;;;;;;6.60;2.80;;;;;;;4.87;100.00;102191.38;5052410;28;20064;-63
2022/12/06 04:43:41;;;;;;;12.15;3.40;;;;;;;4.86;100.00;102192.25;5050644;28;20025;-64
2022/12/06 04:46:08;;;;;;;10.20;3.60;;;;;;;4.79;100.00;102192.16;5052310;28;20535;-64
2022/12/06 04:48:33;;;;;;;11.18;3.10;;;;;;;4.74;100.00;102183.41;5051845;28;20029;-61
2022/12/06 04:50:58;;;;;;;12.15;3.17;;;;;;;4.75;100.00;102192.09;5050914;28;20399;-64
2022/12/06 04:53:23;;;;;;;9.38;2.97;;;;;;;4.70;100.00;102185.97;5051368;28;20488;-60
2022/12/06 04:55:49;;;;;;;5.07;2.92;;;;;;;4.69;100.00;102185.06;5051191;28;20028;-62
2022/12/06 04:58:14;;;;;;;5.00;2.78;;;;;;;4.68;100.00;102180.72;5051049;28;20033;-63
2022/12/06 05:00:43;;;;;;;5.45;2.75;;;;;;;4.67;100.00;102181.59;5051138;28;20047;-63
2022/12/06 05:03:12;;;;;;;4.07;2.90;;;;;;;4.64;100.00;102177.19;5051045;28;20025;-62
2022/12/06 05:05:39;;;;;;;6.95;3.55;;;;;;;4.68;100.00;102180.72;5051027;28;20025;-62
2022/12/06 05:08:04;;;;;;;11.90;4.88;;;;;;;4.70;100.00;102186.84;5050186;28;20083;-62
2022/12/06 05:10:30;;;;;;;7.35;3.38;;;;;;;4.69;100.00;102172.00;5051096;28;20489;-62
2022/12/06 05:12:56;;;;;;;10.93;4.65;;;;;;;4.70;100.00;102173.78;5050960;28;20052;-62
2022/12/06 05:15:21;;;;;;;13.57;4.50;;;;;;;4.75;100.00;102171.22;5050889;28;20028;-60
2022/12/06 05:17:46;;;;;;;5.28;2.90;;;;;;;4.79;100.00;102178.25;5050661;28;20021;-62
2022/12/06 05:20:13;;;;;;;5.57;2.83;;;;;;;4.85;100.00;102173.06;5040885;28;20036;-61
2022/12/06 05:22:38;;;;;;;7.07;3.00;;;;;;;4.90;100.00;102173.13;5039187;28;20025;-63
2022/12/06 05:25:04;;;;;;;3.05;2.53;;;;;;;4.83;100.00;102166.97;5051026;28;20066;-62
2022/12/06 05:27:29;;;;;;;8.40;3.20;;;;;;;4.79;100.00;102159.97;5043279;28;20029;-63
2022/12/06 05:29:55;;;;;;;4.13;3.05;;;;;;;4.74;100.00;102172.97;5042285;28;20021;-62
2022/12/06 05:32:20;;;;;;;9.00;3.20;;;;;;;4.73;100.00;102175.56;5045967;28;20037;-62
2022/12/06 05:34:45;;;;;;;6.07;2.75;;;;;;;4.67;100.00;102174.59;5045686;28;20491;-63
2022/12/06 05:37:11;;;;;;;6.25;3.40;;;;;;;4.61;100.00;102181.50;5040332;28;20029;-63
2022/12/06 05:39:36;;;;;;;5.32;2.70;;;;;;;4.56;100.00;102173.59;5033839;28;20116;-62
2022/12/06 05:42:01;;;;;;;5.63;2.55;;;;;;;4.48;100.00;102173.50;5029928;28;20032;-60
2022/12/06 05:44:27;;;;;;;7.18;3.00;;;;;;;4.42;100.00;102170.81;5030357;28;20043;-62
2022/12/06 05:46:52;;;;;;;9.23;3.13;;;;;;;4.33;100.00;102171.56;5036145;28;20488;-63
2022/12/06 05:49:17;;;;;;;7.32;3.22;;;;;;;4.20;100.00;102172.25;5036825;28;20033;-59
2022/12/06 05:51:43;;;;;;;5.63;2.70;;;;;;;4.10;100.00;102179.97;5029465;28;20026;-64
2022/12/06 05:54:08;;;;;;;7.13;2.70;;;;;;;4.04;100.00;102175.50;5029633;28;20041;-62
2022/12/06 05:56:34;;;;;;;5.95;2.75;;;;;;;3.97;100.00;102178.88;5030119;28;20484;-62
2022/12/06 05:58:59;;;;;;;4.35;2.55;;;;;;;3.99;100.00;102177.19;5030353;28;20744;-61
2022/12/06 06:01:24;;;;;;;3.22;2.50;;;;;;;3.95;100.00;102180.59;5039660;28;20052;-63
2022/12/06 06:03:49;;;;;;;6.15;2.70;;;;;;;3.94;100.00;102176.22;5050327;28;20112;-60
2022/12/06 06:06:15;;;;;;;5.22;2.70;;;;;;;3.94;100.00;102176.22;5041825;28;20030;-61
2022/12/06 06:08:41;;;;;;;6.78;2.92;;;;;;;3.96;100.00;102179.75;5049803;28;20044;-63
2022/12/06 06:11:06;;;;;;;5.18;2.75;;;;;;;3.97;100.00;102184.09;5050069;28;20029;-62
2022/12/06 06:13:31;;;;;;;7.00;3.40;;;;;;;4.01;100.00;102185.88;5048932;28;20021;-63
2022/12/06 06:15:57;;;;;;;4.75;2.90;;;;;;;3.97;100.00;102181.47;5049905;28;20083;-63
2022/12/06 06:18:22;;;;;;;6.03;2.72;;;;;;;3.94;100.00;102186.66;5050101;28;20040;-62
2022/12/06 06:20:52;;;;;;;5.80;2.90;;;;;;;3.97;100.00;102183.22;5049161;28;20044;-64
2022/12/06 06:23:19;;;;;;;5.75;2.65;;;;;;;3.93;100.00;102187.50;5050189;28;20376;-63
2022/12/06 06:25:44;;;;;;;2.60;2.40;;;;;;;3.88;100.00;102184.81;5050038;28;20468;-61
2022/12/06 06:28:09;;;;;;;2.97;2.65;;;;;;;3.85;100.00;102184.78;5049991;28;20047;-60
2022/12/06 06:30:35;;;;;;;3.92;2.85;;;;;;;3.81;100.00;102189.91;5050344;28;20533;-64
2022/12/06 06:33:00;;;;;;;3.95;3.25;;;;;;;3.73;100.00;102185.47;5048191;28;20063;-63
2022/12/06 06:35:25;;;;;;;5.93;2.70;;;;;;;3.64;100.00;102178.38;5048698;28;20036;-63
2022/12/06 06:37:51;;;;;;;5.70;3.03;;;;;;;3.57;100.00;102183.44;5047551;28;20044;-62
2022/12/06 06:40:16;;;;;;;8.35;2.90;;;;;;;3.42;100.00;102179.72;5049477;28;20064;-62
2022/12/06 06:42:41;;;;;;;5.13;2.53;;;;;;;3.26;100.00;102174.25;5047162;28;20029;-64
2022/12/06 06:45:07;;;;;;;6.93;2.60;;;;;;;3.12;100.00;102175.72;5049770;28;20033;-62
2022/12/06 06:47:33;;;;;;;5.03;2.80;;;;;;;3.00;100.00;102177.25;5049802;28;20028;-62
2022/12/06 06:49:58;;;;;;;4.88;2.72;;;;;;;2.89;100.00;102171.81;5049314;28;20020;-63
2022/12/06 06:52:23;;;;;;;7.60;2.95;;;;;;;2.84;100.00;102168.25;5048901;28;20373;-63
2022/12/06 06:54:49;;;;;;;4.78;3.20;;;;;;;2.78;100.00;102169.03;5048906;28;20049;-60
2022/12/06 06:57:14;;;;;;;6.68;2.72;;;;;;;2.77;100.00;102174.19;5049598;28;20021;-63
2022/12/06 06:59:39;;;;;;;5.20;3.83;;;;;;;2.69;100.00;102171.44;5048183;28;20025;-62
2022/12/06 07:02:05;;;;;;;6.95;3.90;;;;;;;2.65;100.00;102167.88;5036340;28;20055;-57
2022/12/06 07:04:30;;;;;;;8.23;5.18;;;;;;;2.67;100.00;102162.69;5047577;28;20025;-62
2022/12/06 07:06:56;;;;;;;7.30;4.38;;;;;;;2.68;100.00;102169.66;5045678;28;20116;-63
2022/12/06 07:09:21;;;;;;;8.77;4.47;;;;;;;2.65;100.00;102169.63;5047401;28;20019;-62
2022/12/06 07:11:47;;;;;;;8.57;4.20;;;;;;;2.64;100.00;102171.31;5048170;28;20529;-64
2022/12/06 07:14:12;;;;;;;9.45;3.67;;;;;;;2.68;100.00;102166.19;5047899;28;20035;-64
2022/12/06 07:16:37;;;;;;;6.45;3.90;;;;;;;2.62;100.00;102166.94;5048411;28;20032;-63
2022/12/06 07:19:03;;;;;;;7.93;4.05;;;;;;;2.62;100.00;102160.00;5047786;28;20029;-64
2022/12/06 07:21:28;;;;;;;7.57;4.30;;;;;;;2.58;100.00;102158.19;5047294;28;20611;-63
2022/12/06 07:23:54;;;;;;;7.97;4.28;;;;;;;2.51;100.00;102157.19;5047771;28;20025;-63
2022/12/06 07:26:23;;;;;;;10.13;5.18;;;;;;;2.42;100.00;102151.78;5046508;28;20028;-64
2022/12/06 07:28:50;;;;;;;7.25;4.65;;;;;;;2.36;100.00;102157.75;5047540;28;20131;-62
2022/12/06 07:31:18;;;;;;;5.15;4.00;;;;;;;2.39;100.00;102164.72;5047912;28;20145;-58
2022/12/06 07:33:44;;;;;;;7.18;3.90;;;;;;;2.41;100.00;102157.84;5027521;28;20035;-64
2022/12/06 07:36:10;;;;;;;7.80;3.35;;;;;;;2.39;100.00;102162.13;5026525;28;20036;-61
2022/12/06 07:38:36;;;;;;;11.65;4.03;;;;;;;2.40;100.00;102171.66;5044824;28;20033;-63
2022/12/06 07:44:59;;;;;;;9.60;3.22;;;;;;;2.39;100.00;102173.41;5047188;28;20490;-65
2022/12/06 07:46:31;;;;;;;6.00;3.35;;;;;;;2.37;100.00;102177.69;5047699;28;20044;-62
2022/12/06 07:48:57;;;;;;;5.38;3.65;;;;;;;2.40;100.00;102182.06;5047829;28;20029;-63
2022/12/06 07:51:22;;;;;;;5.63;3.70;;;;;;;2.42;100.00;102177.81;5046197;28;20029;-60
2022/12/06 07:53:47;;;;;;;4.25;3.40;;;;;;;2.44;100.00;102183.91;5047295;28;20049;-61
2022/12/06 07:56:14;;;;;;;5.90;3.63;;;;;;;2.45;100.00;102183.06;5046312;28;20140;-60
2022/12/06 07:58:40;;;;;;;13.25;4.25;;;;;;;2.50;100.00;102183.19;5047044;28;20104;-60
2022/12/06 08:01:05;;;;;;;7.65;4.10;;;;;;;2.53;100.00;102184.09;5047202;28;20108;-58
2022/12/06 08:03:31;;;;;;;7.70;4.72;;;;;;;2.60;100.00;102192.03;5046354;28;20120;-62
2022/12/06 08:05:56;;;;;;;10.13;5.80;;;;;;;2.64;100.00;102186.06;5046025;28;20021;-64
2022/12/06 08:08:21;;;;;;;10.00;5.88;;;;;;;2.65;100.00;102191.28;5047080;28;20633;-60
2022/12/06 08:10:47;;;;;;;9.90;5.88;;;;;;;2.68;100.00;102189.63;5047136;28;20071;-64
2022/12/06 08:13:12;;;;;;;7.72;4.70;;;;;;;2.70;100.00;102183.59;5046295;28;20048;-63
2022/12/06 08:15:40;;;;;;;6.68;4.68;;;;;;;2.76;100.00;102188.91;5045520;28;20037;-61
2022/12/06 08:18:06;;;;;;;7.13;4.87;;;;;;;2.80;100.00;102189.00;5046889;28;20480;-62
2022/12/06 08:20:31;;;;;;;7.00;4.43;;;;;;;2.83;100.00;102184.69;5044064;28;20278;-62
2022/12/06 08:22:56;;;;;;;8.10;4.90;;;;;;;2.83;100.00;102178.63;5045319;28;20021;-64
2022/12/06 08:25:22;;;;;;;9.23;4.63;;;;;;;2.89;100.00;102189.19;5046090;28;20025;-64
2022/12/06 08:27:47;;;;;;;9.13;4.22;;;;;;;2.95;100.00;102186.66;5046656;28;20021;-63
2022/12/06 08:30:13;;;;;;;7.13;4.50;;;;;;;3.01;100.00;102183.34;5046373;28;20025;-62
2022/12/06 08:32:38;;;;;;;7.43;4.53;;;;;;;3.12;100.00;102181.81;5046732;28;20033;-63
2022/12/06 08:35:03;;;;;;;13.32;9.02;;;;;;;3.19;100.00;102193.19;5046153;28;20043;-65
2022/12/06 08:37:29;;;;;;;14.77;8.02;;;;;;;3.28;100.00;102189.88;5046635;28;20039;-63
2022/12/06 08:39:54;;;;;;;13.45;5.85;;;;;;;3.40;100.00;102189.22;5046755;28;20032;-61
2022/12/06 08:42:19;;;;;;;11.25;5.25;;;;;;;3.51;100.00;102198.13;5046843;28;20029;-63
2022/12/06 08:44:45;;;;;;;14.52;5.10;;;;;;;3.65;100.00;102190.53;5045950;28;20029;-63
2022/12/06 08:47:10;;;;;;;9.85;4.78;;;;;;;3.82;100.00;102186.47;5046314;28;20360;-62
2022/12/06 08:49:36;;;;;;;12.30;5.60;;;;;;;4.00;100.00;102191.09;5039898;28;20033;-62
2022/12/06 08:52:01;;;;;;;17.13;6.57;;;;;;;4.17;100.00;102188.75;5038474;28;20483;-63
2022/12/06 08:54:27;;;;;;;14.18;6.55;;;;;;;4.27;100.00;102181.91;5046439;28;20408;-62
2022/12/06 08:56:52;;;;;;;22.23;9.45;;;;;;;4.33;100.00;102175.91;5044388;28;20060;-62
2022/12/06 08:59:18;;;;;;;18.10;9.48;;;;;;;4.33;100.00;102178.53;5050069;28;20032;-62
2022/12/06 09:01:44;;;;;;;19.05;10.13;;;;;;;4.35;100.00;102176.81;5036283;28;20029;-63
2022/12/06 09:04:10;;;;;;;15.60;8.68;;;;;;;4.48;100.00;102185.69;5047151;28;20033;-57
2022/12/06 09:06:37;;;;;;;12.65;7.85;;;;;;;4.52;100.00;102187.47;5049573;28;20029;-62
2022/12/06 09:09:03;;;;;;;19.95;12.20;;;;;;;4.66;100.00;102195.47;5044390;28;20479;-62
2022/12/06 09:11:28;;;;;;;27.50;12.50;;;;;;;4.83;100.00;102190.47;5049622;28;20478;-62
2022/12/06 09:13:54;;;;;;;21.13;11.68;;;;;;;5.03;100.00;102190.69;5039939;28;20018;-62
2022/12/06 09:16:21;;;;;;;13.20;8.15;;;;;;;5.28;100.00;102190.97;5041895;28;20020;-62
2022/12/06 09:18:47;;;;;;;16.85;7.97;;;;;;;5.45;100.00;102190.25;5050394;28;20013;-62
2022/12/06 09:21:16;;;;;;;14.30;7.60;;;;;;;5.64;100.00;102198.25;5049871;28;20375;-62
2022/12/06 09:23:41;;;;;;;11.30;7.43;;;;;;;5.75;100.00;102180.91;5050713;28;20090;-64
2022/12/06 09:26:07;;;;;;;14.85;7.40;;;;;;;5.87;100.00;102184.50;5050793;28;20467;-64
2022/12/06 09:28:37;;;;;;;10.98;6.35;;;;;;;6.05;100.00;102187.28;5050193;28;20025;-64
2022/12/06 09:31:04;;;;;;;9.95;5.45;;;;;;;6.10;100.00;102182.06;5049561;28;20122;-64
2022/12/06 09:33:29;;;;;;;11.02;5.68;;;;;;;6.18;100.00;102180.38;5049448;28;20037;-62
2022/12/06 09:35:56;;;;;;;12.02;5.55;;;;;;;6.23;100.00;102177.78;5045732;28;20103;-63
2022/12/06 09:38:23;;;;;;;9.70;5.03;;;;;;;6.31;100.00;102188.31;5035152;28;20095;-59
2022/12/06 09:41:10;;;;;;;10.57;4.43;;;;;;;6.38;100.00;102184.00;5037589;28;20041;-60
2022/12/06 09:44:00;;;;;;;7.65;4.70;;;;;;;6.50;100.00;102191.88;5032524;28;20033;-62
2022/12/06 09:47:23;;;;;;;8.35;4.47;;;;;;;6.68;100.00;102195.47;5029951;28;20104;-61
2022/12/06 09:49:54;;;;;;;9.15;3.90;;;;;;;6.91;100.00;102194.69;5031409;28;20036;-64
2022/12/06 09:52:23;;;;;;;6.22;3.42;;;;;;;6.98;100.00;102201.69;5030775;28;20078;-63
2022/12/06 09:55:02;;;;;;;7.85;3.90;;;;;;;7.02;100.00;102198.22;5028666;28;20046;-64
2022/12/06 09:57:36;;;;;;;8.98;3.88;;;;;;;6.96;100.00;102198.19;5029934;28;20503;-62
2022/12/06 10:00:09;;;;;;;8.50;3.83;;;;;;;7.13;100.00;102198.22;5032114;28;20044;-65
2022/12/06 10:02:51;;;;;;;4.38;2.97;;;;;;;7.11;100.00;102192.13;5030159;28;20391;-62
2022/12/06 10:05:37;;;;;;;10.27;3.28;;;;;;;7.25;100.00;102189.53;5028502;28;20068;-61
2022/12/06 10:08:08;;;;;;;4.65;3.10;;;;;;;7.20;100.00;102199.13;5029265;28;20104;-63
2022/12/06 10:10:36;;;;;;;8.30;2.90;;;;;;;7.37;100.00;102190.44;5029930;28;20025;-64
2022/12/06 10:13:03;;;;;;;5.55;2.80;;;;;;;7.36;100.00;102192.16;5029186;28;20026;-64
2022/12/06 10:15:56;;;;;;;7.72;2.70;;;;;;;7.32;100.00;102183.41;5028135;28;20033;-64
2022/12/06 10:18:27;;;;;;;5.43;2.38;;;;;;;7.33;100.00;102186.91;5029476;28;20510;-62
2022/12/06 10:21:05;;;;;;;5.60;2.50;;;;;;;7.38;100.00;102182.56;5028684;28;20108;-60
2022/12/06 10:23:42;;;;;;;12.23;3.08;;;;;;;7.54;100.00;102188.69;5028237;28;20033;-61
2022/12/06 10:26:15;;;;;;;9.40;2.83;;;;;;;7.78;100.00;102186.94;5029033;28;20022;-61
2022/12/06 10:29:00;;;;;;;7.30;2.78;;;;;;;8.04;100.00;102180.78;5032139;28;20384;-63
2022/12/06 10:31:35;;;;;;;8.15;2.72;;;;;;;8.25;100.00;102170.25;5028640;28;20314;-63
2022/12/06 10:34:11;;;;;;;7.60;2.50;;;;;;;8.39;100.00;102170.19;5028801;28;20103;-63
2022/12/06 10:36:36;;;;;;;6.53;2.63;;;;;;;8.47;100.00;102174.56;5027171;28;20412;-61
2022/12/06 10:39:14;;;;;;;4.18;2.28;;;;;;;8.42;100.00;102170.19;5028501;28;20025;-61
2022/12/06 10:42:06;;;;;;;7.03;2.55;;;;;;;8.57;100.00;102167.53;5012595;28;20121;-59
2022/12/06 10:44:36;;;;;;;3.63;2.55;;;;;;;8.63;100.00;102158.75;5027595;28;20095;-62
2022/12/06 10:47:15;;;;;;;5.85;2.03;;;;;;;8.49;100.00;102158.78;5010236;28;20471;-63
2022/12/06 10:49:49;;;;;;;6.13;2.75;;;;;;;8.47;100.00;102165.81;5026794;28;20052;-65
2022/12/06 10:52:29;;;;;;;2.67;1.80;;;;;;;8.47;98.85;102152.66;5028726;28;20030;-61
2022/12/06 10:54:58;;;;;;;7.90;2.28;;;;;;;8.54;98.62;102150.91;5037177;28;20345;-60
2022/12/06 10:57:52;;;;;;;7.20;1.93;;;;;;;8.72;98.97;102149.94;5046759;28;20060;-64
2022/12/06 11:00:33;;;;;;;6.28;2.50;;;;;;;8.85;98.59;102141.13;5048756;28;20039;-64
2022/12/06 11:03:04;;;;;;;9.82;2.42;;;;;;;8.69;98.25;102148.22;5028939;28;20650;-62
2022/12/06 11:05:32;;;;;;;7.80;2.55;;;;;;;8.89;98.08;102149.88;5046829;28;20029;-59
2022/12/06 11:08:25;;;;;;;7.88;2.10;;;;;;;8.96;97.76;102148.97;5046082;28;20103;-64
2022/12/06 11:10:52;;;;;;;6.75;2.25;;;;;;;9.10;97.45;102145.38;5049359;28;20041;-64
2022/12/06 11:13:24;;;;;;;5.55;2.00;;;;;;;9.22;96.32;102152.28;5048279;28;20039;-64
2022/12/06 11:15:55;;;;;;;7.40;2.33;;;;;;;9.21;96.99;102146.16;5047093;28;20501;-63
2022/12/06 11:18:21;;;;;;;5.57;2.42;;;;;;;9.33;96.68;102139.94;5047547;28;20023;-64
2022/12/06 11:20:55;;;;;;;4.75;2.40;;;;;;;9.35;96.08;102140.81;5046034;28;20070;-56
2022/12/06 11:23:36;;;;;;;4.07;1.98;;;;;;;9.46;96.81;102139.84;5045818;28;20422;-63
2022/12/06 11:26:10;;;;;;;4.63;1.85;;;;;;;9.42;97.14;102135.50;5047317;28;20466;-63
2022/12/06 11:28:40;;;;;;;3.15;2.08;;;;;;;9.35;96.77;102134.66;5044397;28;20029;-60
2022/12/06 11:31:21;;;;;;;7.95;2.42;;;;;;;9.17;96.80;102126.03;5046456;28;20017;-62
2022/12/06 11:33:47;;;;;;;5.60;1.88;;;;;;;8.91;98.01;102128.84;5040842;28;20379;-63
2022/12/06 11:36:12;;;;;;;3.80;1.80;;;;;;;8.79;98.27;102127.16;5031932;28;20018;-64
2022/12/06 11:38:38;;;;;;;6.70;1.67;;;;;;;8.70;99.26;102125.47;5041814;28;20029;-61
2022/12/06 11:41:07;;;;;;;4.45;1.80;;;;;;;8.72;100.00;102121.94;5046667;28;20072;-63
2022/12/06 11:43:35;;;;;;;4.32;1.92;;;;;;;8.69;100.00;102121.06;5046176;28;20086;-65
2022/12/06 11:46:03;;;;;;;8.27;2.83;;;;;;;8.77;100.00;102113.13;5047492;28;20111;-63
2022/12/06 11:48:32;;;;;;;8.63;2.15;;;;;;;9.02;100.00;102120.84;5044452;28;20027;-65
2022/12/06 11:50:57;;;;;;;8.00;2.33;;;;;;;9.75;98.57;102122.91;5045891;28;20025;-62
2022/12/06 11:53:31;;;;;;;8.77;2.38;;;;;;;10.76;95.29;102110.34;5046652;28;20033;-63
2022/12/06 11:56:00;;;;;;;6.95;2.60;;;;;;;11.56;89.61;102109.94;5043911;28;20027;-65